• Join FlightAware (Why Join?)
  • Login
  • US Flag 
02:38AM EST


 

Airport Tracker/Info


-or-


 

Live Flight TrackerFlight Track Log ✈ ASQ5685 ✈ 29-Apr-2013 ✈ KBTV - KIAD

Flight Track Log - Related Links

Times and Time Zones

All times are in EDT time to prevent confusion due to time zone crossing. See the ASQ5685 flight status page for this flight to view local times or setup timezone preferences in your user account.

Time Position Orientation Groundspeed Altitude Reporting Facility
EDT Latitude Longitude Course Direction KTS MPH feet Rate Location/Type
02:44PM 44.3883 -73.1519 195° South 199 229 4,200  Level Boston Center
02:45PM 44.3361 -73.1714 195° South 244 281 7,100 2,760 Climbing Boston Center
02:46PM 44.2650 -73.1994 196° South 257 296 9,800 1,980 Climbing Boston Center
02:47PM 44.1856 -73.2333 197° South 286 329 11,100 1,740 Climbing Boston Center
02:48PM 43.9187 -73.3592 196° South  Level FlightAware Approximate
02:48PM 44.0978 -73.2697 197° South 321 369 13,300  Level Boston Center
02:49PM 43.8271 -73.3936 195° South  Level FlightAware Approximate
02:49PM 44.0039 -73.3058 195° South 348 400 15,100  Level Boston Center
02:50PM 43.9119 -73.3450 197° South 353 406 16,700 1,440 Climbing Boston Center
02:51PM 43.8117 -73.3839 196° South 365 420 18,000 1,500 Climbing Boston Center
02:52PM 43.7008 -73.4281 196° South 370 426 19,700 1,500 Climbing Boston Center
02:53PM 43.6086 -73.4636 196° South 375 432 21,000 1,080 Climbing Boston Center
02:54PM 43.5064 -73.5019 195° South 381 438 22,100 1,080 Climbing Boston Center
02:55PM 43.3808 -73.5514 196° South 386 444 23,500 1,140 Climbing Boston Center
02:56PM 43.2761 -73.5978 198° South 392 451 24,400 840 Climbing Boston Center
02:57PM 43.1672 -73.6386 195° South 403 464 25,200 720 Climbing Boston Center
02:59PM 43.0458 -73.6872 196° South 408 470 26,000 720 Climbing Boston Center
03:00PM 42.9161 -73.7386 196° South 408 470 26,900 780 Climbing Boston Center
03:01PM 42.7864 -73.7894 196° South 408 470 27,800 720 Climbing Boston Center
03:02PM 42.6731 -73.8378 197° South 413 475 28,500 780 Climbing Boston Center
03:03PM 42.5661 -73.8892 199° South 421 484 29,400 780 Climbing Boston Center
03:04PM 42.4572 -73.9400 199° South 416 479 30,100 540 Climbing Boston Center
03:05PM 42.3503 -73.9881 198° South 416 479 30,700 780 Climbing Boston Center
03:06PM 42.2183 -74.0381 196° South 410 472 31,900 600 Climbing Boston Center
03:07PM 42.1119 -74.0436 182° South 396 456 32,000  Climbing Boston Center
03:08PM 42.0056 -74.0494 182° South 390 449 32,000  Level Boston Center
03:09PM 41.9039 -74.0133 165° South 385 443 32,000  Level Boston Center
03:10PM 41.8069 -73.9442 152° Southeast 385 443 32,000  Level Boston Center
03:12PM 41.6333 -73.7881 146° Southeast 392 451 32,000  Level New York Center
03:13PM 41.5567 -73.6903 136° Southeast 392 451 32,000  Level New York Center
03:14PM 41.4642 -73.6339 155° Southeast 385 443 32,000  Level New York Center
03:15PM 41.3700 -73.6575 191° South 339 390 32,000  Level New York Center
03:16PM 41.3053 -73.7431 225° Southwest 305 351 32,000  Level New York Center
03:17PM 41.2547 -73.8539 239° Southwest 310 357 32,000  Level New York Center
03:18PM 41.2058 -73.9619 239° Southwest 338 389 32,000 -360 Level New York Center
03:19PM 41.1550 -74.0753 239° Southwest 351 404 31,300 -900 Descending New York Center
03:20PM 41.0997 -74.1881 237° Southwest 372 428 30,200 -1,140 Descending New York Center
03:21PM 41.0378 -74.3114 236° Southwest 372 428 29,100 -1,140 Descending New York Center
03:22PM 40.9822 -74.4267 237° Southwest 372 428 28,000 -1,080 Descending New York Center
03:23PM 40.9264 -74.5444 238° Southwest 383 441 27,000 -960 Descending New York Center
03:24PM 40.8786 -74.6681 243° Southwest 383 441 26,100 -540 Descending New York Center
03:25PM 40.8406 -74.8031 250° West 383 441 26,000 -60 Descending New York Center
03:26PM 40.7883 -74.9289 241° Southwest 394 453 26,000  Level New York Center
03:27PM 40.7278 -75.0483 236° Southwest 394 453 26,000  Level New York Center
03:28PM 40.6689 -75.1761 239° Southwest 400 460 26,000  Level New York Center
03:29PM 40.6081 -75.3033 238° Southwest 411 473 26,000 -60 Level New York Center
03:30PM 40.5467 -75.4303 238° Southwest 416 479 25,900 -1,080 Descending New York Center
03:31PM 40.4811 -75.5625 237° Southwest 421 484 23,900 -1,980 Descending New York Center
03:32PM 40.4172 -75.6969 238° Southwest 432 497 22,000 -1,920 Descending New York Center
03:33PM 40.3511 -75.8286 237° Southwest 437 503 20,100 -1,020 Descending New York Center
03:34PM 40.2919 -75.9439 236° Southwest 431 496 20,000 -60 Descending New York Center
03:35PM 40.2322 -76.0644 237° Southwest 426 490 20,000 -420 Level New York Center
03:36PM 40.1678 -76.2008 238° Southwest 420 483 19,200 -1,140 Descending New York Center
03:37PM 40.1083 -76.3156 236° Southwest 420 483 17,800 -1,440 Descending New York Center
03:38PM 40.0522 -76.4414 240° Southwest 415 478 16,400 -1,440 Descending New York Center
03:39PM 39.9894 -76.5772 239° Southwest 410 472 15,000 -480 Descending New York Center
03:41PM 39.8833 -76.8167 240° Southwest 325 374 15,000 -120 Level Potomac TRACON
03:42PM 39.8500 -76.9000 243° Southwest 297 342 14,800 -900 Descending Potomac TRACON
03:43PM 39.8333 -77.0167 259° West 292 336 13,300 -1,260 Descending Potomac TRACON
03:44PM 39.8000 -77.0833 237° Southwest 253 291 12,300 -1,440 Descending Potomac TRACON
03:45PM 39.7500 -77.1500 226° Southwest 245 282 10,500 -1,560 Descending Potomac TRACON
03:46PM 39.7167 -77.2167 237° Southwest 232 267 9,200 -1,380 Descending Potomac TRACON
03:47PM 39.6667 -77.2833 226° Southwest 227 261 7,800 -1,380 Descending Potomac TRACON
03:48PM 39.6167 -77.3000 194° South 213 245 6,400 -1,380 Descending Potomac TRACON
03:49PM 39.5667 -77.2833 166° South 199 229 5,200 -780 Descending Potomac TRACON
03:50PM 39.5500 -77.3333 247° West 204 235 5,000 -120 Descending Potomac TRACON
03:51PM 39.5500 -77.4167 270° West 199 229 5,000 -180 Level Potomac TRACON
03:52PM 39.5000 -77.4333 194° South 180 207 4,700 -540 Descending Potomac TRACON
03:53PM 39.4667 -77.4333 180° South 177 204 4,000 -360 Descending Potomac TRACON
03:54PM 39.4167 -77.4333 180° South 180 207 4,000  Level Potomac TRACON
03:55PM 39.3667 -77.4333 180° South 166 191 4,000 -300 Level Potomac TRACON
03:56PM 39.3167 -77.4333 180° South 155 178 3,500 -540 Descending Potomac TRACON
03:57PM 39.2833 -77.4333 180° South 153 176 3,000 -300 Descending Potomac TRACON
03:58PM 39.2333 -77.4333 180° South 153 176 3,000  Level Potomac TRACON
03:59PM 39.1833 -77.4333 180° South 151 174 3,000  Level Potomac TRACON
04:00PM 39.1500 -77.4333 180° South 155 178 3,000  Level Potomac TRACON
04:01PM 39.1167 -77.4333 180° South 143 165 3,000 -300 Level Potomac TRACON
04:02PM 39.0667 -77.4333 180° South 156 180 2,500 -660 Descending Potomac TRACON
04:03PM 39.0333 -77.4333 180° South 143 165 1,700 -780 Descending Potomac TRACON
04:04PM 38.9833 -77.4333 180° South 139 160 1,000 -720 Descending Potomac TRACON